Time;durP1;ratioP1;P1;durP2;ratioP2;P2;SDS_P1;SDS_P2;PMS_P1;PMS_P2;Temp;Humidity;BMP_temperature;BMP_pressure;BME280_temperature;BME280_humidity;BME280_pressure;Samples;Min_cycle;Max_cycle;Signal;HPM_P1;HPM_P2
2022/09/11 00:01:02;;;;;;;36.10;25.52;;;14.20;99.90;;;;;;5020726;28;90238;-31
2022/09/11 00:03:30;;;;;;;36.83;25.17;;;14.20;99.90;;;;;;5021536;27;89687;-33
2022/09/11 00:06:00;;;;;;;37.60;24.93;;;14.10;99.90;;;;;;5021048;28;89660;-30
2022/09/11 00:08:26;;;;;;;40.55;26.40;;;14.10;99.90;;;;;;5020706;28;88628;-30
2022/09/11 00:10:51;;;;;;;35.63;24.67;;;14.10;99.90;;;;;;5021058;27;90357;-31
2022/09/11 00:13:21;;;;;;;33.78;24.83;;;14.10;99.90;;;;;;5021054;28;90112;-30
2022/09/11 00:15:50;;;;;;;41.80;26.88;;;14.10;99.90;;;;;;5021724;27;90167;-32
2022/09/11 00:18:17;;;;;;;;;;;14.10;99.90;;;;;;5021107;28;89502;-30
2022/09/11 00:20:54;;;;;;;34.08;22.85;;;14.10;99.90;;;;;;5022668;28;90141;-31
2022/09/11 00:23:21;;;;;;;39.25;26.75;;;14.00;99.90;;;;;;5020399;28;90155;-32
2022/09/11 00:25:47;;;;;;;27.95;20.55;;;14.00;99.90;;;;;;5021258;27;89439;-30
2022/09/11 00:28:15;;;;;;;34.63;23.77;;;14.00;99.90;;;;;;5020601;27;89104;-32
2022/09/11 00:30:45;;;;;;;30.00;23.00;;;14.00;99.90;;;;;;5020690;27;89608;-31
2022/09/11 00:33:12;;;;;;;35.05;25.13;;;14.00;99.90;;;;;;5020265;27;89610;-30
2022/09/11 00:35:39;;;;;;;34.88;25.25;;;13.90;99.90;;;;;;5020623;27;89787;-34
2022/09/11 00:38:07;;;;;;;34.80;23.98;;;13.90;99.90;;;;;;5052791;22;88895;-31
2022/09/11 00:40:53;;;;;;;32.70;22.00;;;13.90;99.90;;;;;;5020810;27;90427;-29
2022/09/11 00:43:19;;;;;;;33.67;22.33;;;13.90;99.90;;;;;;5019047;28;90258;-29
2022/09/11 00:45:51;;;;;;;34.83;21.67;;;13.90;99.90;;;;;;5020273;27;90378;-32
2022/09/11 00:48:20;;;;;;;30.63;21.70;;;13.90;99.90;;;;;;5020456;27;88772;-33
2022/09/11 00:50:49;;;;;;;34.15;23.98;;;13.90;99.90;;;;;;5020621;28;90338;-30
2022/09/11 00:53:16;;;;;;;;;;;13.90;99.90;;;;;;5020493;28;89550;-32
2022/09/11 00:55:46;;;;;;;34.43;20.13;;;13.80;99.90;;;;;;5023222;28;88769;-29
2022/09/11 00:58:15;;;;;;;36.38;22.67;;;13.80;99.90;;;;;;5020991;27;89728;-33
2022/09/11 01:00:43;;;;;;;29.95;19.75;;;13.80;99.90;;;;;;5020529;27;90281;-29
2022/09/11 01:03:09;;;;;;;29.95;19.13;;;13.80;99.90;;;;;;5020476;27;89429;-30
2022/09/11 01:05:38;;;;;;;31.17;20.75;;;13.90;99.90;;;;;;5019810;28;89660;-30
2022/09/11 01:08:05;;;;;;;28.92;21.77;;;13.80;99.90;;;;;;5019404;28;88347;-31
2022/09/11 01:10:53;;;;;;;32.83;23.40;;;13.80;99.90;;;;;;5020276;27;90403;-29
2022/09/11 01:13:47;;;;;;;35.70;24.85;;;13.80;99.90;;;;;;5020347;28;89776;-32
2022/09/11 01:16:22;;;;;;;27.10;22.70;;;13.70;99.90;;;;;;5019845;28;89650;-30
2022/09/11 01:19:09;;;;;;;28.85;21.67;;;13.70;99.90;;;;;;5019916;28;88778;-29
2022/09/11 01:22:04;;;;;;;30.20;21.80;;;13.70;99.90;;;;;;5019611;28;90169;-32
2022/09/11 01:24:44;;;;;;;30.67;23.00;;;13.70;99.90;;;;;;5019974;28;88802;-28
2022/09/11 01:27:29;;;;;;;27.35;21.30;;;13.70;99.90;;;;;;5020356;28;89461;-31
2022/09/11 01:30:05;;;;;;;29.38;21.38;;;13.70;99.90;;;;;;5020052;27;88497;-32
2022/09/11 01:32:54;;;;;;;30.95;22.75;;;13.70;99.90;;;;;;5019504;27;90992;-33
2022/09/11 01:35:34;;;;;;;29.65;20.38;;;13.60;99.90;;;;;;5018425;28;90654;-31
2022/09/11 01:38:13;;;;;;;27.15;21.85;;;13.60;99.90;;;;;;5019238;27;90474;-30
2022/09/11 01:40:53;;;;;;;30.23;22.17;;;13.60;99.90;;;;;;5019532;27;89458;-33
2022/09/11 01:43:25;;;;;;;35.53;23.67;;;13.60;99.90;;;;;;5019093;27;90719;-28
2022/09/11 01:45:52;;;;;;;37.45;21.63;;;13.60;99.90;;;;;;5020121;27;89736;-31
2022/09/11 01:48:22;;;;;;;33.67;21.10;;;13.60;99.90;;;;;;5015999;27;90310;-31
2022/09/11 01:50:50;;;;;;;31.95;22.35;;;13.60;99.90;;;;;;5018250;28;88290;-30
2022/09/11 01:53:20;;;;;;;32.17;23.30;;;13.60;99.90;;;;;;5018542;27;90092;-30
2022/09/11 01:56:09;;;;;;;27.90;21.23;;;13.60;99.90;;;;;;5019467;27;90143;-30
2022/09/11 01:58:36;;;;;;;29.92;22.23;;;13.60;99.90;;;;;;5019004;27;89924;-31
2022/09/11 02:01:15;;;;;;;28.98;21.10;;;13.50;99.90;;;;;;5019013;27;89425;-32
2022/09/11 02:03:53;;;;;;;34.30;23.92;;;13.60;99.90;;;;;;5018733;28;90610;-33
2022/09/11 02:06:28;;;;;;;34.33;23.50;;;13.50;99.90;;;;;;5018805;27;89725;-32
2022/09/11 02:08:58;;;;;;;34.38;23.65;;;13.50;99.90;;;;;;5019392;27;89692;-31
2022/09/11 02:11:24;;;;;;;32.25;21.52;;;13.50;99.90;;;;;;5019442;27;89920;-30
2022/09/11 02:14:04;;;;;;;32.03;23.92;;;13.50;99.90;;;;;;5018771;28;90631;-31
2022/09/11 02:16:49;;;;;;;28.88;23.02;;;13.50;99.90;;;;;;5006970;28;89692;-30
2022/09/11 02:19:17;;;;;;;28.30;21.48;;;13.50;99.90;;;;;;5018976;28;89201;-33
2022/09/11 02:21:45;;;;;;;29.42;20.38;;;13.50;99.90;;;;;;5019495;27;89791;-31
2022/09/11 02:24:11;;;;;;;;;;;13.50;99.90;;;;;;5019835;27;90856;-29
2022/09/11 02:26:42;;;;;;;27.77;21.23;;;13.50;99.90;;;;;;5020851;28;91193;-31
2022/09/11 02:29:09;;;;;;;36.97;26.52;;;13.50;99.90;;;;;;5018919;27;90658;-32
2022/09/11 02:31:35;;;;;;;35.38;23.00;;;13.50;99.90;;;;;;5018874;27;89337;-32
2022/09/11 02:34:01;;;;;;;36.70;27.88;;;13.50;99.90;;;;;;5019119;27;90198;-31
2022/09/11 02:36:54;;;;;;;30.80;22.13;;;13.50;99.90;;;;;;5018146;28;90289;-32
2022/09/11 02:39:47;;;;;;;32.50;22.00;;;13.50;99.90;;;;;;5019077;28;89391;-30
2022/09/11 02:42:21;;;;;;;31.45;24.50;;;13.60;99.90;;;;;;5018341;28;89351;-30
2022/09/11 02:45:13;;;;;;;29.05;21.48;;;13.60;99.90;;;;;;5018422;28;90404;-32
2022/09/11 02:48:00;;;;;;;30.05;21.33;;;13.50;99.90;;;;;;5018246;28;89639;-29
2022/09/11 02:50:51;;;;;;;31.95;22.00;;;13.50;99.90;;;;;;5004847;28;89355;-30
2022/09/11 02:53:33;;;;;;;30.92;22.50;;;13.50;99.90;;;;;;5017359;27;90348;-32
2022/09/11 02:56:10;;;;;;;28.58;21.05;;;13.50;99.90;;;;;;5018733;28;90273;-29
2022/09/11 02:58:57;;;;;;;32.93;22.90;;;13.50;99.90;;;;;;5018159;27;90228;-30
2022/09/11 03:01:24;;;;;;;29.55;22.33;;;13.50;99.90;;;;;;5017885;28;89617;-29
2022/09/11 03:03:49;;;;;;;32.65;23.40;;;13.50;99.90;;;;;;5018313;27;88300;-29
2022/09/11 03:06:26;;;;;;;33.50;22.80;;;13.50;99.90;;;;;;5018325;28;90344;-33
2022/09/11 03:08:52;;;;;;;25.63;19.73;;;13.50;99.90;;;;;;5018364;27;90072;-30
2022/09/11 03:11:18;;;;;;;26.13;20.80;;;13.50;99.90;;;;;;5018614;27;89419;-30
2022/09/11 03:13:45;;;;;;;30.80;22.40;;;13.50;99.90;;;;;;5018829;27;88989;-30
2022/09/11 03:16:11;;;;;;;27.35;23.35;;;13.50;99.90;;;;;;5018747;27;88317;-29
2022/09/11 03:18:37;;;;;;;29.15;21.35;;;13.40;99.90;;;;;;5017921;27;90619;-30
2022/09/11 03:21:03;;;;;;;28.20;19.50;;;13.40;99.90;;;;;;5018373;27;89668;-30
2022/09/11 03:23:29;;;;;;;30.15;22.58;;;13.40;99.90;;;;;;5017862;28;89288;-29
2022/09/11 03:25:55;;;;;;;28.92;21.55;;;13.40;99.90;;;;;;5018503;27;90293;-29
2022/09/11 03:28:21;;;;;;;26.25;22.23;;;13.40;99.90;;;;;;5017425;28;89573;-29
2022/09/11 03:30:48;;;;;;;27.80;21.48;;;13.40;99.90;;;;;;5017676;28;89149;-31
2022/09/11 03:33:16;;;;;;;26.45;20.23;;;13.30;99.90;;;;;;5018498;28;88227;-33
2022/09/11 03:35:43;;;;;;;29.57;20.10;;;13.30;99.90;;;;;;5017990;27;90151;-30
2022/09/11 03:38:09;;;;;;;26.23;19.20;;;13.30;99.90;;;;;;5017580;27;90264;-30
2022/09/11 03:40:34;;;;;;;26.52;19.73;;;13.30;99.90;;;;;;5018574;28;88781;-30
2022/09/11 03:43:01;;;;;;;37.72;21.35;;;13.30;99.90;;;;;;5017399;28;89726;-32
2022/09/11 03:45:27;;;;;;;28.23;21.65;;;13.30;99.90;;;;;;5017317;27;90051;-31
2022/09/11 03:47:53;;;;;;;27.17;21.27;;;13.30;99.90;;;;;;5018598;27;90117;-29
2022/09/11 03:50:19;;;;;;;24.77;17.77;;;13.20;99.90;;;;;;5017685;28;89884;-33
2022/09/11 03:52:44;;;;;;;23.23;17.75;;;13.20;99.90;;;;;;5018247;28;89370;-34
2022/09/11 03:55:10;;;;;;;22.73;16.65;;;13.20;99.90;;;;;;5017992;28;90186;-30
2022/09/11 03:57:37;;;;;;;23.60;18.27;;;13.20;99.90;;;;;;5017423;28;89424;-31
2022/09/11 04:00:05;;;;;;;20.25;16.70;;;13.20;99.90;;;;;;5017849;28;89838;-32
2022/09/11 04:02:30;;;;;;;24.55;17.85;;;13.10;99.90;;;;;;5018438;27;87645;-30
2022/09/11 04:04:56;;;;;;;23.63;20.33;;;13.10;99.90;;;;;;5017309;28;90527;-28
2022/09/11 04:07:22;;;;;;;23.90;17.50;;;13.10;99.90;;;;;;5017523;28;90175;-29
2022/09/11 04:09:48;;;;;;;23.85;18.80;;;13.10;99.90;;;;;;5017567;28;90558;-31
2022/09/11 04:12:13;;;;;;;24.40;18.27;;;13.10;99.90;;;;;;5021046;28;87924;-33
2022/09/11 04:14:39;;;;;;;19.63;16.40;;;13.20;99.90;;;;;;5020825;28;90708;-31
2022/09/11 04:17:06;;;;;;;23.40;17.45;;;13.10;99.90;;;;;;5021459;28;89767;-34
2022/09/11 04:19:35;;;;;;;25.45;17.02;;;13.10;99.90;;;;;;5021401;27;89073;-30
2022/09/11 04:22:02;;;;;;;23.65;19.20;;;13.10;99.90;;;;;;5021327;28;88771;-30
2022/09/11 04:24:28;;;;;;;25.58;19.98;;;13.00;99.90;;;;;;5020942;27;89741;-31
2022/09/11 04:26:53;;;;;;;23.77;17.75;;;13.10;99.90;;;;;;5020924;28;89737;-34
2022/09/11 04:29:21;;;;;;;33.10;21.60;;;13.10;99.90;;;;;;5020858;28;89587;-29
2022/09/11 04:31:47;;;;;;;24.57;18.40;;;13.00;99.90;;;;;;5020458;27;90836;-31
2022/09/11 04:34:12;;;;;;;25.33;18.38;;;13.00;99.90;;;;;;5020372;28;90126;-29
2022/09/11 04:36:38;;;;;;;20.45;16.85;;;13.00;99.90;;;;;;5020340;28;90634;-30
2022/09/11 04:39:03;;;;;;;21.25;17.15;;;12.90;99.90;;;;;;5020510;28;89288;-31
2022/09/11 04:41:29;;;;;;;23.35;17.30;;;12.90;99.90;;;;;;5020804;28;88751;-33
2022/09/11 04:43:56;;;;;;;18.30;15.38;;;12.90;99.90;;;;;;5020401;28;90394;-30
2022/09/11 04:46:23;;;;;;;21.65;16.25;;;12.90;99.90;;;;;;5020476;27;88768;-29
2022/09/11 04:48:51;;;;;;;19.88;15.35;;;12.80;99.90;;;;;;5020995;27;89438;-30
2022/09/11 04:51:24;;;;;;;18.13;13.10;;;12.80;99.90;;;;;;5018825;28;88618;-30
2022/09/11 04:53:50;;;;;;;18.27;15.10;;;12.70;99.90;;;;;;5020685;27;90544;-30
2022/09/11 04:56:20;;;;;;;17.92;15.60;;;12.70;99.90;;;;;;5019714;27;91985;-29
2022/09/11 04:58:52;;;;;;;19.73;15.63;;;12.70;99.90;;;;;;5020359;27;90902;-29
2022/09/11 05:01:17;;;;;;;20.48;16.88;;;12.70;99.90;;;;;;5020756;27;88277;-29
2022/09/11 05:03:43;;;;;;;18.58;14.68;;;12.70;99.90;;;;;;5019866;28;90422;-29
2022/09/11 05:06:11;;;;;;;16.77;13.90;;;12.70;99.90;;;;;;5021040;28;89029;-30
2022/09/11 05:08:36;;;;;;;14.98;13.40;;;12.70;99.90;;;;;;5020858;27;92825;-32
2022/09/11 05:11:05;;;;;;;20.58;14.85;;;12.70;99.90;;;;;;5019757;28;89156;-31
2022/09/11 05:13:32;;;;;;;18.55;14.60;;;12.60;99.90;;;;;;5019881;28;90020;-28
2022/09/11 05:16:01;;;;;;;14.27;12.80;;;12.70;99.90;;;;;;5020276;28;89548;-32
2022/09/11 05:18:27;;;;;;;17.10;14.57;;;12.60;99.90;;;;;;5020466;28;89836;-31
2022/09/11 05:21:00;;;;;;;18.70;14.88;;;12.70;99.90;;;;;;5020050;27;90468;-29
2022/09/11 05:23:30;;;;;;;21.00;16.25;;;12.70;99.90;;;;;;5020415;27;90025;-30
2022/09/11 05:26:01;;;;;;;22.85;15.45;;;12.70;99.90;;;;;;5018528;28;90011;-30
2022/09/11 05:28:27;;;;;;;20.63;15.93;;;12.70;99.90;;;;;;5020083;27;89426;-30
2022/09/11 05:30:54;;;;;;;24.20;17.25;;;12.80;99.90;;;;;;5020236;28;88471;-33
2022/09/11 05:33:24;;;;;;;19.05;15.88;;;12.80;99.90;;;;;;5018902;27;90295;-31
2022/09/11 05:35:50;;;;;;;21.55;16.55;;;12.80;99.90;;;;;;5019038;27;88081;-32
2022/09/11 05:38:17;;;;;;;22.13;17.40;;;12.90;99.90;;;;;;5019350;27;89518;-34
2022/09/11 05:40:44;;;;;;;21.52;16.52;;;12.90;99.90;;;;;;5020135;28;87681;-31
2022/09/11 05:43:11;;;;;;;20.08;17.38;;;12.90;99.90;;;;;;5019599;28;90244;-30
2022/09/11 05:45:36;;;;;;;26.27;17.73;;;13.00;99.90;;;;;;5018678;27;91138;-30
2022/09/11 05:48:02;;;;;;;22.27;17.30;;;13.00;99.90;;;;;;5019475;28;90233;-31
2022/09/11 05:50:30;;;;;;;24.10;17.48;;;13.10;99.90;;;;;;5019099;28;89319;-30
2022/09/11 05:52:56;;;;;;;18.45;15.45;;;13.10;99.90;;;;;;5019488;27;90636;-31
2022/09/11 05:55:21;;;;;;;20.45;16.20;;;13.20;99.90;;;;;;5019608;28;89573;-32
2022/09/11 05:57:47;;;;;;;24.50;14.73;;;13.20;99.90;;;;;;5019512;28;89885;-32
2022/09/11 06:00:13;;;;;;;23.05;15.93;;;13.20;99.90;;;;;;5019374;28;87647;-31
2022/09/11 06:02:39;;;;;;;19.75;14.48;;;13.30;99.90;;;;;;5019884;28;90018;-29
2022/09/11 06:05:04;;;;;;;19.38;15.63;;;13.30;99.90;;;;;;5018810;28;90024;-34
2022/09/11 06:07:30;;;;;;;20.02;16.23;;;13.40;99.90;;;;;;5019546;28;89062;-29
2022/09/11 06:09:56;;;;;;;19.10;15.13;;;13.40;99.90;;;;;;5018453;28;89769;-32
2022/09/11 06:12:21;;;;;;;20.10;15.10;;;13.50;99.90;;;;;;5018652;28;89889;-33
2022/09/11 06:14:47;;;;;;;19.58;15.98;;;13.50;99.90;;;;;;5018812;28;88891;-30
2022/09/11 06:17:13;;;;;;;17.42;13.85;;;13.60;99.90;;;;;;5018962;28;89578;-34
2022/09/11 06:19:38;;;;;;;18.55;14.90;;;13.60;99.90;;;;;;5019303;28;89403;-31
2022/09/11 06:22:04;;;;;;;20.52;16.20;;;13.60;99.90;;;;;;5018995;28;90363;-32
2022/09/11 06:24:29;;;;;;;15.80;14.18;;;13.70;99.90;;;;;;5018446;28;90098;-30
2022/09/11 06:26:55;;;;;;;17.33;13.18;;;13.70;99.90;;;;;;5018774;28;89900;-31
2022/09/11 06:29:20;;;;;;;17.90;15.57;;;13.80;99.90;;;;;;5019390;28;90030;-30
2022/09/11 06:31:50;;;;;;;17.45;13.68;;;13.80;99.90;;;;;;5019156;28;90195;-30
2022/09/11 06:34:16;;;;;;;17.75;13.23;;;13.80;99.90;;;;;;5017297;27;90555;-33
2022/09/11 06:36:42;;;;;;;20.95;14.80;;;13.90;99.90;;;;;;5019052;27;90546;-35
2022/09/11 06:39:08;;;;;;;18.10;13.82;;;13.90;99.90;;;;;;5018576;27;90245;-29
2022/09/11 06:41:34;;;;;;;23.15;14.80;;;13.90;99.90;;;;;;5018508;28;91315;-29
2022/09/11 06:43:59;;;;;;;19.20;15.73;;;14.00;99.90;;;;;;5019277;28;89333;-33
2022/09/11 06:46:25;;;;;;;17.08;14.73;;;14.00;99.90;;;;;;5018606;28;89921;-29
2022/09/11 06:48:51;;;;;;;18.42;15.82;;;14.10;99.90;;;;;;5019545;27;89415;-33
2022/09/11 06:51:19;;;;;;;17.35;15.55;;;14.20;99.90;;;;;;5018349;28;90628;-30
2022/09/11 06:53:46;;;;;;;17.40;13.20;;;14.20;99.90;;;;;;5019118;28;89654;-32
2022/09/11 06:56:14;;;;;;;17.00;13.98;;;14.30;99.90;;;;;;5018515;27;90186;-34
2022/09/11 06:58:40;;;;;;;20.80;16.45;;;14.40;99.90;;;;;;5018188;27;90015;-32
2022/09/11 07:01:10;;;;;;;16.58;14.13;;;14.50;99.90;;;;;;5018025;27;90293;-31
2022/09/11 07:03:36;;;;;;;16.95;14.93;;;14.60;99.90;;;;;;5018254;27;89609;-31
2022/09/11 07:06:02;;;;;;;20.00;16.02;;;14.70;99.90;;;;;;5018672;28;90079;-29
2022/09/11 07:08:28;;;;;;;18.75;14.23;;;14.80;99.90;;;;;;5019166;28;88928;-33
2022/09/11 07:10:54;;;;;;;15.30;13.40;;;14.90;99.90;;;;;;5018398;27;90011;-32
2022/09/11 07:13:23;;;;;;;15.77;13.90;;;15.10;99.90;;;;;;5017813;27;88965;-30
2022/09/11 07:15:48;;;;;;;20.75;16.85;;;15.20;99.90;;;;;;5018721;27;89789;-35
2022/09/11 07:18:14;;;;;;;19.10;16.15;;;15.30;99.90;;;;;;5018838;27;89551;-30
2022/09/11 07:20:40;;;;;;;17.13;14.68;;;15.50;99.90;;;;;;5017851;27;90138;-31
2022/09/11 07:23:07;;;;;;;17.58;15.63;;;15.60;99.90;;;;;;5017785;28;90515;-33
2022/09/11 07:25:37;;;;;;;17.95;15.35;;;15.80;99.90;;;;;;5016305;28;90628;-32
2022/09/11 07:28:02;;;;;;;19.55;15.70;;;15.90;99.90;;;;;;5018610;28;87664;-32
2022/09/11 07:30:28;;;;;;;17.70;15.80;;;16.10;99.90;;;;;;5018383;27;89576;-31
2022/09/11 07:32:54;;;;;;;17.10;13.40;;;16.30;99.90;;;;;;5018610;27;89438;-29
2022/09/11 07:35:20;;;;;;;19.35;16.98;;;16.40;99.90;;;;;;5017655;27;89041;-31
2022/09/11 07:37:47;;;;;;;20.95;17.23;;;16.60;99.90;;;;;;5016435;27;88152;-32
2022/09/11 07:40:14;;;;;;;18.08;16.33;;;16.80;99.90;;;;;;5017693;27;91754;-29
2022/09/11 07:42:40;;;;;;;20.08;17.55;;;17.00;99.90;;;;;;5017728;27;91041;-31
2022/09/11 07:45:06;;;;;;;20.38;18.27;;;17.10;99.90;;;;;;5018243;27;90907;-30
2022/09/11 07:47:32;;;;;;;18.65;16.83;;;17.20;99.90;;;;;;5020591;27;89750;-31
2022/09/11 07:49:58;;;;;;;18.63;15.38;;;17.40;99.90;;;;;;5021044;27;90683;-32
2022/09/11 07:52:24;;;;;;;20.33;15.27;;;17.40;99.90;;;;;;5012700;28;89591;-32
2022/09/11 07:54:50;;;;;;;19.80;17.10;;;17.50;99.90;;;;;;5021218;28;90038;-31
2022/09/11 07:57:15;;;;;;;18.73;15.27;;;17.60;99.90;;;;;;5021489;28;87822;-34
2022/09/11 07:59:41;;;;;;;20.60;17.05;;;17.60;99.90;;;;;;5021702;28;90373;-31
2022/09/11 08:02:08;;;;;;;19.25;16.10;;;17.70;99.90;;;;;;5020662;28;88443;-33
2022/09/11 08:04:33;;;;;;;17.55;14.70;;;17.80;99.90;;;;;;5021573;28;89676;-30
2022/09/11 08:06:59;;;;;;;20.05;16.13;;;17.80;99.90;;;;;;5021789;28;89848;-33
2022/09/11 08:09:26;;;;;;;17.33;14.57;;;17.90;99.90;;;;;;5021557;28;90088;-34
2022/09/11 08:11:57;;;;;;;18.65;16.67;;;18.00;99.90;;;;;;5020790;27;90910;-31
2022/09/11 08:14:26;;;;;;;18.98;16.27;;;18.20;99.90;;;;;;5008138;28;90470;-31
2022/09/11 08:16:53;;;;;;;18.88;15.52;;;18.30;99.90;;;;;;5019036;27;88215;-33
2022/09/11 08:19:21;;;;;;;16.88;15.13;;;18.40;99.90;;;;;;5020148;27;90329;-32
2022/09/11 08:21:47;;;;;;;19.00;16.38;;;18.50;99.90;;;;;;5020192;28;89415;-33
2022/09/11 08:24:15;;;;;;;16.02;14.43;;;18.70;99.90;;;;;;5020480;27;89208;-31
2022/09/11 08:26:41;;;;;;;16.83;14.88;;;18.70;99.90;;;;;;5019510;27;90203;-31
2022/09/11 08:29:07;;;;;;;16.40;14.52;;;18.70;99.90;;;;;;5017955;28;90174;-30
2022/09/11 08:31:33;;;;;;;17.83;16.02;;;18.80;99.90;;;;;;5020141;28;88479;-33
2022/09/11 08:33:59;;;;;;;16.20;14.50;;;18.90;99.90;;;;;;5018622;28;89482;-33
2022/09/11 08:36:26;;;;;;;20.30;17.23;;;18.90;99.90;;;;;;5018513;27;90025;-30
2022/09/11 08:38:52;;;;;;;18.50;15.77;;;18.90;99.90;;;;;;5020339;27;90169;-31
2022/09/11 08:41:27;;;;;;;15.60;13.65;;;19.00;99.90;;;;;;5019794;28;89925;-30
2022/09/11 08:43:57;;;;;;;16.02;14.43;;;19.10;99.90;;;;;;5020455;27;89577;-31
2022/09/11 08:46:29;;;;;;;14.15;12.85;;;19.30;99.90;;;;;;5020069;28;88580;-31
2022/09/11 08:49:14;;;;;;;16.02;13.15;;;19.30;99.90;;;;;;5020029;28;91242;-32
2022/09/11 08:51:41;;;;;;;16.40;14.27;;;19.20;99.90;;;;;;5019491;27;89864;-32
2022/09/11 08:54:10;;;;;;;17.65;15.65;;;19.20;99.90;;;;;;5020998;27;88199;-31
2022/09/11 08:56:37;;;;;;;16.73;14.77;;;19.20;99.90;;;;;;5019966;27;88751;-33
2022/09/11 08:59:17;;;;;;;17.35;15.05;;;19.10;99.90;;;;;;5019895;27;90544;-33
2022/09/11 09:02:18;;;;;;;16.48;14.90;;;19.00;99.90;;;;;;5018768;27;91063;-31
2022/09/11 09:05:13;;;;;;;18.38;16.55;;;18.80;99.90;;;;;;5020749;27;90577;-32
2022/09/11 09:08:00;;;;;;;18.75;16.85;;;18.80;99.90;;;;;;5007748;28;88206;-30
2022/09/11 09:10:44;;;;;;;20.00;17.87;;;18.80;99.90;;;;;;5019539;27;91464;-30
2022/09/11 09:13:34;;;;;;;17.77;15.93;;;18.90;99.90;;;;;;5007442;28;89690;-31
2022/09/11 09:16:06;;;;;;;20.75;18.60;;;18.90;99.90;;;;;;5019011;28;89973;-30
2022/09/11 09:18:44;;;;;;;19.40;17.20;;;19.10;99.90;;;;;;5019485;27;89379;-32
2022/09/11 09:21:19;;;;;;;21.92;19.52;;;19.10;99.90;;;;;;5019341;27;90250;-29
2022/09/11 09:23:52;;;;;;;25.33;20.17;;;19.10;99.90;;;;;;5019927;27;90448;-30
2022/09/11 09:26:19;;;;;;;22.48;19.77;;;19.20;99.90;;;;;;5024202;27;90518;-31
2022/09/11 09:28:47;;;;;;;15.45;13.85;;;19.20;99.90;;;;;;5024101;28;88969;-32
2022/09/11 09:31:19;;;;;;;18.67;15.57;;;19.10;99.90;;;;;;5019750;27;90313;-34
2022/09/11 09:33:55;;;;;;;19.35;16.88;;;19.10;99.90;;;;;;5019362;27;89644;-34
2022/09/11 09:36:27;;;;;;;20.05;16.90;;;19.20;99.90;;;;;;5019449;27;88235;-32
2022/09/11 09:38:53;;;;;;;14.07;12.65;;;19.20;99.90;;;;;;5023980;27;88203;-30
2022/09/11 09:41:37;;;;;;;15.88;14.13;;;19.30;99.90;;;;;;5026446;27;89240;-31
2022/09/11 09:44:38;;;;;;;14.88;13.23;;;19.30;99.90;;;;;;5021339;28;89762;-32
2022/09/11 09:47:08;;;;;;;17.13;14.88;;;19.60;99.90;;;;;;5010668;28;89707;-31
2022/09/11 09:49:36;;;;;;;11.77;10.57;;;19.60;99.90;;;;;;5030184;27;88271;-32
2022/09/11 09:52:18;;;;;;;15.85;7.93;;;19.80;99.90;;;;;;5020005;27;90872;-31
2022/09/11 09:54:54;;;;;;;12.07;8.18;;;19.80;99.90;;;;;;5028016;27;90429;-35
2022/09/11 09:57:23;;;;;;;7.78;6.95;;;19.90;99.90;;;;;;5019665;27;93184;-32
2022/09/11 10:00:05;;;;;;;7.07;6.38;;;20.10;99.90;;;;;;5020251;27;89762;-32
2022/09/11 10:02:57;;;;;;;7.82;5.80;;;20.20;99.90;;;;;;5019904;27;90459;-30
2022/09/11 10:05:42;;;;;;;4.60;4.05;;;20.10;99.90;;;;;;5018881;27;89444;-34
2022/09/11 10:08:34;;;;;;;5.97;4.85;;;20.20;99.90;;;;;;5018831;27;89120;-33
2022/09/11 10:11:09;;;;;;;6.30;5.70;;;20.40;99.90;;;;;;5018057;28;89322;-34
2022/09/11 10:13:41;;;;;;;6.53;5.93;;;20.50;99.90;;;;;;5019881;27;90232;-34
2022/09/11 10:16:26;;;;;;;8.77;6.00;;;20.60;99.90;;;;;;5018583;27;89788;-33
2022/09/11 10:18:53;;;;;;;6.53;5.30;;;20.80;99.90;;;;;;5007529;27;89385;-32
2022/09/11 10:21:22;;;;;;;4.43;3.70;;;20.90;99.90;;;;;;5017012;28;90347;-31
2022/09/11 10:24:25;;;;;;;4.95;4.45;;;20.90;99.90;;;;;;5018463;28;89157;-34
2022/09/11 10:26:53;;;;;;;4.25;3.92;;;20.90;99.90;;;;;;5007255;28;89731;-30
2022/09/11 10:29:21;;;;;;;5.78;5.25;;;20.70;99.90;;;;;;5005361;27;89565;-31
2022/09/11 10:31:54;;;;;;;6.00;5.50;;;20.60;99.90;;;;;;5018895;27;89759;-31
2022/09/11 10:34:22;;;;;;;6.70;6.05;;;20.50;99.90;;;;;;5018805;27;89325;-30
2022/09/11 10:36:59;;;;;;;;;;;20.50;99.90;;;;;;5018917;28;89443;-33
2022/09/11 10:39:27;;;;;;;6.15;5.13;;;20.20;99.90;;;;;;5020071;28;88889;-31
2022/09/11 10:41:56;;;;;;;5.45;4.97;;;20.20;99.90;;;;;;5018667;27;88179;-34
2022/09/11 10:44:22;;;;;;;6.05;5.55;;;20.10;99.90;;;;;;5018305;28;90392;-31
2022/09/11 10:47:20;;;;;;;5.88;5.28;;;20.10;99.90;;;;;;5017830;28;90790;-32
2022/09/11 10:49:46;;;;;;;5.80;5.32;;;20.30;99.90;;;;;;5002992;27;90236;-31
2022/09/11 10:52:12;;;;;;;5.95;5.32;;;20.50;99.90;;;;;;5018564;27;89222;-32
2022/09/11 10:54:52;;;;;;;7.60;5.13;;;20.50;99.90;;;;;;5018197;28;90824;-34
2022/09/11 10:57:22;;;;;;;7.30;5.75;;;20.60;99.90;;;;;;5003519;28;92110;-30
2022/09/11 11:00:10;;;;;;;8.13;5.70;;;20.40;99.90;;;;;;5017737;27;89262;-33
2022/09/11 11:02:39;;;;;;;6.15;4.03;;;20.60;99.90;;;;;;5018015;28;88895;-31
2022/09/11 11:05:12;;;;;;;7.90;5.30;;;20.70;99.90;;;;;;5018067;27;90279;-32
2022/09/11 11:07:47;;;;;;;5.65;4.28;;;20.90;99.90;;;;;;5017263;27;89741;-31
2022/09/11 11:10:31;;;;;;;4.78;4.28;;;21.00;99.90;;;;;;5018220;27;89642;-33
2022/09/11 11:13:17;;;;;;;8.57;4.82;;;21.00;99.90;;;;;;5018418;27;90604;-33
2022/09/11 11:16:26;;;;;;;4.93;4.00;;;20.90;99.90;;;;;;5018326;28;89404;-31
2022/09/11 11:19:03;;;;;;;5.60;4.65;;;21.00;99.90;;;;;;4978209;28;89960;-31
2022/09/11 11:21:45;;;;;;;4.47;4.07;;;21.10;99.90;;;;;;5019866;28;89375;-32
2022/09/11 11:24:40;;;;;;;5.82;4.47;;;21.10;99.90;;;;;;5022498;27;88032;-32
2022/09/11 11:27:19;;;;;;;3.13;2.83;;;21.20;99.90;;;;;;5021409;28;90308;-34
2022/09/11 11:30:22;;;;;;;4.63;4.28;;;21.20;99.90;;;;;;5020899;28;90301;-32
2022/09/11 11:33:03;;;;;;;3.85;2.95;;;21.30;99.90;;;;;;4959208;28;90265;-31
2022/09/11 11:36:02;;;;;;;3.80;3.50;;;21.40;99.90;;;;;;5005194;28;89179;-32
2022/09/11 11:38:34;;;;;;;4.95;4.55;;;21.50;99.90;;;;;;5020683;28;90142;-35
2022/09/11 11:41:10;;;;;;;6.22;4.07;;;21.50;99.90;;;;;;5020940;28;90643;-32
2022/09/11 11:43:39;;;;;;;4.65;4.25;;;21.50;99.90;;;;;;5020663;27;90388;-32
2022/09/11 11:46:25;;;;;;;4.40;3.85;;;21.60;99.90;;;;;;5021486;27;88896;-32
2022/09/11 11:49:00;;;;;;;4.05;3.50;;;21.60;99.90;;;;;;5021056;28;90685;-31
2022/09/11 11:51:28;;;;;;;4.13;3.08;;;21.50;99.90;;;;;;5021798;27;89696;-31
2022/09/11 11:54:02;;;;;;;4.00;3.50;;;21.50;99.90;;;;;;5020605;27;89754;-33
2022/09/11 11:56:53;;;;;;;4.50;2.60;;;21.50;99.90;;;;;;5021061;27;89468;-31
2022/09/11 11:59:39;;;;;;;3.53;3.33;;;21.40;99.90;;;;;;5009293;28;90428;-33
2022/09/11 12:02:08;;;;;;;3.78;3.17;;;21.50;99.90;;;;;;5021191;28;90363;-34
2022/09/11 12:04:51;;;;;;;3.78;3.10;;;21.50;99.90;;;;;;5021592;28;89903;-32
2022/09/11 12:07:25;;;;;;;2.83;2.63;;;21.50;99.90;;;;;;5020212;28;90602;-32
2022/09/11 12:09:53;;;;;;;5.60;2.85;;;21.50;99.90;;;;;;5021226;27;90192;-33
2022/09/11 12:12:20;;;;;;;;;;;21.50;99.90;;;;;;5021215;28;89761;-31
2022/09/11 12:14:55;;;;;;;3.47;3.13;;;21.40;99.90;;;;;;5022643;27;88897;-33
2022/09/11 12:17:27;;;;;;;3.55;3.20;;;21.40;99.90;;;;;;5021190;27;88212;-32
2022/09/11 12:20:10;;;;;;;3.75;3.45;;;21.40;99.90;;;;;;5020566;27;90928;-32
2022/09/11 12:22:47;;;;;;;4.15;3.55;;;21.30;99.90;;;;;;5008560;28;89734;-33
2022/09/11 12:25:22;;;;;;;5.78;3.28;;;21.20;99.90;;;;;;5020497;28;89725;-30
2022/09/11 12:27:47;;;;;;;3.50;3.10;;;21.20;99.90;;;;;;5021763;28;90039;-31
2022/09/11 12:30:16;;;;;;;3.10;2.90;;;21.10;99.90;;;;;;5020263;28;89985;-31
2022/09/11 12:32:53;;;;;;;2.83;2.63;;;21.00;99.90;;;;;;5019225;27;91142;-32
2022/09/11 12:35:30;;;;;;;3.45;3.08;;;21.00;99.90;;;;;;5019550;28;90522;-29
2022/09/11 12:38:05;;;;;;;2.70;2.50;;;21.00;99.90;;;;;;5048883;22;88785;-32
2022/09/11 12:40:56;;;;;;;5.80;3.17;;;20.90;99.90;;;;;;5001121;28;91349;-31
2022/09/11 12:43:34;;;;;;;5.65;3.38;;;20.80;99.90;;;;;;5000299;28;90150;-31
2022/09/11 12:46:00;;;;;;;3.03;2.70;;;20.80;99.90;;;;;;5000792;28;90064;-31
2022/09/11 12:49:17;;;;;;;2.60;2.40;;;20.70;99.90;;;;;;4999663;28;88236;-34
2022/09/11 12:51:54;;;;;;;4.55;3.63;;;20.70;99.90;;;;;;4996331;28;90678;-32
2022/09/11 12:54:25;;;;;;;3.53;3.22;;;20.60;99.90;;;;;;4999665;28;89831;-32
2022/09/11 12:57:18;;;;;;;3.33;3.03;;;20.40;99.90;;;;;;5000014;28;90163;-31